createdAt,value
2022-10-03T00:01:51.812Z,3.87
2022-10-03T00:05:07.100Z,4.18
2022-10-03T00:08:21.667Z,5.22
2022-10-03T00:11:33.428Z,3.90
2022-10-03T00:14:45.754Z,3.53
2022-10-03T00:17:58.461Z,4.03
2022-10-03T00:21:20.238Z,4.93
2022-10-03T00:24:35.820Z,3.50
2022-10-03T00:27:43.458Z,3.67
2022-10-03T00:30:56.425Z,3.20
2022-10-03T00:34:06.854Z,4.00
2022-10-03T00:37:24.638Z,3.42
2022-10-03T00:41:00.925Z,3.50
2022-10-03T00:44:29.385Z,4.35
2022-10-03T00:47:58.429Z,3.88
2022-10-03T00:51:11.614Z,5.50
2022-10-03T00:54:37.436Z,4.13
2022-10-03T00:58:07.600Z,3.90
2022-10-03T01:01:24.794Z,3.70
2022-10-03T01:04:50.207Z,4.70
2022-10-03T01:08:24.265Z,4.78
2022-10-03T01:11:44.099Z,4.88
2022-10-03T01:15:11.985Z,4.80
2022-10-03T01:18:27.158Z,4.27
2022-10-03T01:21:43.401Z,4.60
2022-10-03T01:25:00.110Z,5.78
2022-10-03T01:28:24.558Z,4.22
2022-10-03T01:31:36.953Z,3.50
2022-10-03T01:34:50.173Z,4.22
2022-10-03T01:38:04.198Z,4.40
2022-10-03T01:41:13.407Z,5.32
2022-10-03T01:44:24.901Z,6.38
2022-10-03T01:47:40.448Z,6.28
2022-10-03T01:50:55.886Z,6.28
2022-10-03T01:54:15.508Z,6.20
2022-10-03T01:57:28.904Z,6.35
2022-10-03T02:00:41.662Z,6.13
2022-10-03T02:03:57.623Z,6.60
2022-10-03T02:07:17.233Z,10.00
2022-10-03T02:10:30.641Z,9.80
2022-10-03T02:13:47.313Z,5.25
2022-10-03T02:17:01.775Z,5.72
2022-10-03T02:20:15.749Z,9.35
2022-10-03T02:23:39.497Z,8.32
2022-10-03T02:27:13.110Z,7.20
2022-10-03T02:30:22.662Z,7.45
2022-10-03T02:34:11.830Z,8.38
2022-10-03T02:37:41.229Z,8.30
2022-10-03T02:41:19.154Z,5.68
2022-10-03T02:45:07.007Z,6.78
2022-10-03T02:48:50.809Z,5.03
2022-10-03T02:52:18.879Z,7.05
2022-10-03T02:55:55.785Z,6.28
2022-10-03T02:59:45.939Z,6.50
2022-10-03T03:03:21.434Z,5.70
2022-10-03T03:06:58.384Z,4.93
2022-10-03T03:10:50.746Z,4.40
2022-10-03T03:14:31.710Z,5.95
2022-10-03T03:17:42.070Z,5.22
2022-10-03T03:21:04.728Z,4.40
2022-10-03T03:24:26.803Z,5.43
2022-10-03T03:27:53.673Z,4.88
2022-10-03T03:31:10.718Z,5.28
2022-10-03T03:34:24.185Z,4.15
2022-10-03T03:37:36.927Z,6.97
2022-10-03T03:40:48.913Z,5.20
2022-10-03T03:44:14.834Z,6.60
2022-10-03T03:47:44.379Z,3.97
2022-10-03T03:51:00.831Z,5.38
2022-10-03T03:54:32.163Z,6.20
2022-10-03T03:58:00.208Z,5.53
2022-10-03T04:01:32.312Z,4.63
2022-10-03T04:04:48.222Z,6.18
2022-10-03T04:08:12.511Z,5.03
2022-10-03T04:11:28.096Z,5.63
2022-10-03T04:14:47.796Z,4.70
2022-10-03T04:18:23.674Z,5.15
2022-10-03T04:21:51.227Z,4.60
2022-10-03T04:25:16.412Z,4.32
2022-10-03T04:28:40.989Z,5.03
2022-10-03T04:31:55.272Z,6.50
2022-10-03T04:35:23.973Z,4.72
2022-10-03T04:38:44.691Z,5.25
2022-10-03T04:41:58.047Z,5.40
2022-10-03T04:45:30.118Z,4.68
2022-10-03T04:48:43.073Z,5.63
2022-10-03T04:51:59.743Z,5.65
2022-10-03T04:55:10.518Z,5.18
2022-10-03T04:58:27.835Z,7.22
2022-10-03T05:01:43.571Z,9.88
2022-10-03T05:05:11.728Z,6.45
2022-10-03T05:08:38.499Z,8.52
2022-10-03T05:11:56.376Z,8.38
2022-10-03T05:15:17.804Z,7.93
2022-10-03T05:18:35.056Z,10.02
2022-10-03T05:21:46.760Z,9.50
2022-10-03T05:25:04.257Z,10.32
2022-10-03T05:28:17.806Z,9.13
2022-10-03T05:31:35.440Z,10.75
2022-10-03T05:34:55.712Z,11.48
2022-10-03T05:38:19.216Z,10.25
2022-10-03T05:41:28.604Z,11.82
2022-10-03T05:44:41.840Z,13.50
2022-10-03T05:47:51.889Z,10.23
2022-10-03T05:51:11.761Z,13.13
2022-10-03T05:54:43.583Z,10.93
2022-10-03T05:58:20.111Z,10.65
2022-10-03T06:01:42.350Z,9.25
2022-10-03T06:05:07.861Z,11.38
2022-10-03T06:08:32.856Z,12.10
2022-10-03T06:12:03.816Z,11.52
2022-10-03T06:15:55.152Z,9.90
2022-10-03T06:19:14.897Z,10.23
2022-10-03T06:22:49.041Z,14.68
2022-10-03T06:26:42.291Z,12.48
2022-10-03T06:30:07.668Z,10.50
2022-10-03T06:33:55.543Z,11.05
2022-10-03T06:37:42.115Z,11.40
2022-10-03T06:41:22.601Z,9.93
2022-10-03T06:44:47.044Z,10.52
2022-10-03T06:48:08.542Z,9.98
2022-10-03T06:51:47.313Z,11.27
2022-10-03T06:55:21.813Z,9.55
2022-10-03T06:59:13.546Z,10.65
2022-10-03T07:02:37.149Z,11.32
2022-10-03T07:06:09.898Z,10.77
2022-10-03T07:09:54.236Z,10.98
2022-10-03T07:17:09.915Z,10.95
2022-10-03T07:21:12.445Z,12.52
2022-10-03T07:24:45.963Z,10.13
2022-10-03T07:28:09.469Z,7.68
2022-10-03T07:31:31.759Z,8.48
2022-10-03T07:35:51.295Z,8.23
2022-10-03T07:39:55.514Z,7.40
2022-10-03T07:43:50.003Z,6.53
2022-10-03T07:47:46.441Z,7.93
2022-10-03T07:50:59.233Z,7.28
2022-10-03T07:54:29.750Z,8.55
2022-10-03T07:57:48.173Z,8.07
2022-10-03T08:01:09.463Z,9.45
2022-10-03T08:04:53.417Z,10.45
2022-10-03T08:08:23.461Z,6.80
2022-10-03T08:12:04.370Z,8.90
2022-10-03T08:15:12.546Z,8.18
2022-10-03T08:18:38.829Z,7.55
2022-10-03T08:21:56.737Z,7.43
2022-10-03T08:25:27.001Z,6.43
2022-10-03T08:28:51.462Z,8.70
2022-10-03T08:32:48.534Z,6.45
2022-10-03T08:36:38.408Z,5.35
2022-10-03T08:40:05.583Z,6.60
2022-10-03T08:43:40.507Z,4.75
2022-10-03T08:47:13.354Z,5.88
2022-10-03T08:50:45.122Z,9.50
2022-10-03T08:54:09.838Z,9.52
2022-10-03T08:57:31.077Z,5.80
2022-10-03T09:01:00.361Z,5.60
2022-10-03T09:04:35.822Z,4.85
2022-10-03T09:08:01.833Z,6.65
2022-10-03T09:11:56.497Z,6.10
2022-10-03T09:15:15.207Z,4.18
2022-10-03T09:18:42.091Z,5.40
2022-10-03T09:22:23.294Z,3.90
2022-10-03T09:25:36.502Z,4.85
2022-10-03T09:28:59.274Z,5.80
2022-10-03T09:32:31.144Z,5.25
2022-10-03T09:35:49.856Z,5.63
2022-10-03T09:39:09.583Z,5.57
2022-10-03T09:42:50.916Z,7.25
2022-10-03T09:46:26.220Z,5.05
2022-10-03T09:49:50.132Z,10.38
2022-10-03T09:53:20.322Z,6.75
2022-10-03T09:56:44.118Z,9.90
2022-10-03T10:00:04.493Z,7.93
2022-10-03T10:03:50.397Z,4.32
2022-10-03T10:07:27.139Z,4.53
2022-10-03T10:11:12.443Z,5.63
2022-10-03T10:14:39.881Z,4.88
2022-10-03T10:18:11.462Z,8.90
2022-10-03T10:21:48.627Z,4.68
2022-10-03T10:25:20.262Z,3.95
2022-10-03T10:28:58.158Z,4.50
2022-10-03T10:32:30.609Z,5.45
2022-10-03T10:36:09.705Z,4.43
2022-10-03T10:39:40.730Z,5.68
2022-10-03T10:43:15.493Z,4.30
2022-10-03T10:47:03.972Z,5.05
2022-10-03T10:50:42.030Z,6.40
2022-10-03T10:54:12.097Z,4.68
2022-10-03T10:57:51.315Z,5.05
2022-10-03T11:01:29.785Z,5.43
2022-10-03T11:05:05.777Z,3.97
2022-10-03T11:08:41.813Z,5.50
2022-10-03T11:12:21.622Z,3.28
2022-10-03T11:16:00.428Z,2.85
2022-10-03T11:19:45.489Z,4.93
2022-10-03T11:23:29.933Z,4.10
2022-10-03T11:27:07.044Z,3.60
2022-10-03T11:30:24.833Z,5.07
2022-10-03T11:34:02.314Z,3.80
2022-10-03T11:37:11.072Z,5.88
2022-10-03T11:40:29.365Z,2.70
2022-10-03T11:44:04.452Z,3.38
2022-10-03T11:47:30.855Z,5.72
2022-10-03T11:50:46.288Z,3.03
2022-10-03T11:54:13.253Z,2.97
2022-10-03T11:57:30.097Z,2.08
2022-10-03T12:00:37.498Z,3.83
2022-10-03T12:03:47.364Z,2.97
2022-10-03T12:07:18.311Z,6.90
2022-10-03T12:10:39.178Z,4.22
2022-10-03T12:13:48.252Z,3.25
2022-10-03T12:17:05.683Z,2.58
2022-10-03T12:20:23.023Z,4.70
2022-10-03T12:23:41.506Z,3.63
2022-10-03T12:26:53.994Z,5.90
2022-10-03T12:30:00.472Z,4.03
2022-10-03T12:33:21.253Z,4.38
2022-10-03T12:36:32.762Z,2.28
2022-10-03T12:39:45.073Z,3.22
2022-10-03T12:43:02.325Z,3.08
2022-10-03T12:46:13.136Z,2.55
2022-10-03T12:49:20.561Z,3.03
2022-10-03T12:52:29.066Z,3.38
2022-10-03T12:55:35.793Z,3.30
2022-10-03T12:58:51.307Z,3.85
2022-10-03T13:02:29.862Z,4.20
2022-10-03T13:05:45.321Z,4.03
2022-10-03T13:09:03.714Z,3.15
2022-10-03T13:12:16.602Z,3.78
2022-10-03T13:16:07.392Z,4.90
2022-10-03T13:19:16.782Z,1.90
2022-10-03T13:22:33.106Z,2.83
2022-10-03T13:25:45.922Z,3.33
2022-10-03T13:29:17.822Z,4.40
2022-10-03T13:32:32.325Z,2.22
2022-10-03T13:36:00.653Z,3.03
2022-10-03T13:39:26.439Z,1.40
2022-10-03T13:42:41.268Z,3.38
2022-10-03T13:45:50.599Z,3.65
2022-10-03T13:49:02.336Z,2.50
2022-10-03T13:52:17.139Z,2.30
2022-10-03T13:55:49.276Z,2.17
2022-10-03T13:59:02.778Z,3.25
2022-10-03T14:02:21.234Z,1.92
2022-10-03T14:05:58.811Z,3.80
2022-10-03T14:09:44.759Z,3.47
2022-10-03T14:13:17.865Z,2.92
2022-10-03T14:16:29.150Z,2.08
2022-10-03T14:19:42.495Z,1.48
2022-10-03T14:23:05.391Z,3.10
2022-10-03T14:26:18.384Z,4.18
2022-10-03T14:29:33.268Z,2.83
2022-10-03T14:32:48.446Z,4.32
2022-10-03T14:36:13.930Z,4.63
2022-10-03T14:39:33.021Z,2.47
2022-10-03T14:42:54.056Z,3.05
2022-10-03T14:46:05.124Z,4.63
2022-10-03T14:49:47.110Z,2.03
2022-10-03T14:52:50.683Z,4.13
2022-10-03T14:56:02.427Z,2.13
2022-10-03T14:59:16.392Z,3.28
2022-10-03T15:02:30.542Z,1.50
2022-10-03T15:05:38.899Z,2.22
2022-10-03T15:08:46.609Z,2.72
2022-10-03T15:11:55.949Z,2.88
2022-10-03T15:15:05.740Z,4.35
2022-10-03T15:18:18.869Z,3.22
2022-10-03T15:21:24.223Z,3.38
2022-10-03T15:24:36.763Z,2.38
2022-10-03T15:27:46.864Z,4.63
2022-10-03T15:30:54.636Z,3.95
2022-10-03T15:34:02.663Z,4.03
2022-10-03T15:37:15.866Z,2.05
2022-10-03T15:40:29.113Z,2.30
2022-10-03T15:43:39.187Z,1.52
2022-10-03T15:46:48.116Z,2.47
2022-10-03T15:49:57.593Z,1.45
2022-10-03T15:53:35.172Z,2.88
2022-10-03T15:56:44.529Z,4.72
2022-10-03T15:59:54.245Z,2.38
2022-10-03T16:03:09.671Z,1.90
2022-10-03T16:06:21.955Z,1.90
2022-10-03T16:09:31.911Z,2.15
2022-10-03T16:12:52.757Z,4.05
2022-10-03T16:16:18.080Z,2.85
2022-10-03T16:19:40.633Z,2.72
2022-10-03T16:22:52.219Z,2.47
2022-10-03T16:25:59.627Z,1.55
2022-10-03T16:29:14.770Z,2.10
2022-10-03T16:32:22.327Z,4.63
2022-10-03T16:35:36.186Z,2.72
2022-10-03T16:38:46.802Z,1.65
2022-10-03T16:41:56.039Z,3.50
2022-10-03T16:45:02.422Z,2.70
2022-10-03T16:48:33.042Z,3.20
2022-10-03T16:51:42.665Z,2.22
2022-10-03T16:54:53.975Z,2.65
2022-10-03T16:58:02.429Z,2.35
2022-10-03T17:01:27.916Z,4.07
2022-10-03T17:04:35.506Z,1.63
2022-10-03T17:07:46.847Z,3.65
2022-10-03T17:10:58.317Z,1.30
2022-10-03T17:14:07.769Z,3.75
2022-10-03T17:17:26.483Z,1.77
2022-10-03T17:20:42.445Z,3.53
2022-10-03T17:23:54.071Z,2.00
2022-10-03T17:27:06.787Z,1.83
2022-10-03T17:30:22.657Z,3.50
2022-10-03T17:33:37.347Z,1.77
2022-10-03T17:36:55.646Z,3.30
2022-10-03T17:40:12.790Z,3.47
2022-10-03T17:43:26.608Z,1.92
2022-10-03T17:46:41.098Z,2.25
2022-10-03T17:49:55.687Z,1.58
2022-10-03T17:53:02.812Z,2.05
2022-10-03T17:56:24.485Z,3.95
2022-10-03T17:59:39.648Z,2.75
2022-10-03T18:03:01.658Z,1.33
2022-10-03T18:06:47.749Z,3.33
2022-10-03T18:09:55.081Z,2.10
2022-10-03T18:13:06.850Z,3.38
2022-10-03T18:16:23.664Z,3.47
2022-10-03T18:19:47.325Z,4.47
2022-10-03T18:23:01.325Z,4.10
2022-10-03T18:26:20.127Z,1.83
2022-10-03T18:29:31.838Z,4.03
2022-10-03T18:32:40.766Z,2.87
2022-10-03T18:35:49.152Z,2.30
2022-10-03T18:39:01.196Z,2.97
2022-10-03T18:42:12.226Z,3.53
2022-10-03T18:45:21.973Z,5.57
2022-10-03T18:48:36.289Z,4.53
2022-10-03T18:51:44.786Z,6.40
2022-10-03T18:55:01.872Z,3.27
2022-10-03T18:58:14.838Z,4.07
2022-10-03T19:01:25.449Z,2.70
2022-10-03T19:04:51.351Z,4.80
2022-10-03T19:08:11.044Z,2.33
2022-10-03T19:11:26.696Z,5.10
2022-10-03T19:14:35.815Z,3.50
2022-10-03T19:17:59.213Z,3.10
2022-10-03T19:21:13.730Z,5.00
2022-10-03T19:24:39.920Z,3.93
2022-10-03T19:27:52.480Z,2.53
2022-10-03T19:31:05.012Z,4.50
2022-10-03T19:34:21.201Z,5.87
2022-10-03T19:37:44.447Z,2.20
2022-10-03T19:41:05.255Z,3.07
2022-10-03T19:44:16.897Z,2.50
2022-10-03T19:47:31.218Z,5.80
2022-10-03T19:50:39.139Z,3.20
2022-10-03T19:53:45.066Z,3.73
2022-10-03T19:56:51.069Z,2.43
2022-10-03T20:00:01.415Z,4.43
2022-10-03T20:03:17.721Z,3.83
2022-10-03T20:06:27.281Z,3.33
2022-10-03T20:09:33.349Z,4.33
2022-10-03T20:12:46.498Z,3.00
2022-10-03T20:15:53.966Z,3.70
2022-10-03T20:19:07.096Z,4.33
2022-10-03T20:22:16.267Z,3.80
2022-10-03T20:25:30.537Z,4.47
2022-10-03T20:29:01.345Z,3.87
2022-10-03T20:32:09.054Z,3.50
2022-10-03T20:35:17.177Z,2.97
2022-10-03T20:38:33.451Z,5.50
2022-10-03T20:41:50.733Z,5.20
2022-10-03T20:45:03.962Z,4.17
2022-10-03T20:48:14.897Z,3.53
2022-10-03T20:51:39.647Z,5.20
2022-10-03T20:54:51.952Z,5.00
2022-10-03T20:58:07.394Z,5.13
2022-10-03T21:01:18.638Z,6.37
2022-10-03T21:04:30.422Z,5.10
2022-10-03T21:07:39.973Z,5.00
2022-10-03T21:10:49.729Z,5.00
2022-10-03T21:13:59.086Z,3.93
2022-10-03T21:17:05.566Z,5.87
2022-10-03T21:20:21.100Z,4.03
2022-10-03T21:23:28.743Z,4.57
2022-10-03T21:26:39.649Z,5.83
2022-10-03T21:29:56.581Z,6.60
2022-10-03T21:33:07.461Z,6.63
2022-10-03T21:36:23.848Z,3.87
2022-10-03T21:39:41.614Z,6.07
2022-10-03T21:42:57.978Z,4.70
2022-10-03T21:46:13.730Z,5.03
2022-10-03T21:49:47.684Z,6.00
2022-10-03T21:53:19.195Z,6.53
2022-10-03T21:56:48.788Z,3.10
2022-10-03T22:00:10.169Z,5.30
2022-10-03T22:03:23.250Z,4.50
2022-10-03T22:06:32.724Z,3.47
2022-10-03T22:09:46.905Z,4.47
2022-10-03T22:12:54.697Z,4.67
2022-10-03T22:16:08.423Z,4.03
2022-10-03T22:19:26.657Z,3.47
2022-10-03T22:22:42.898Z,3.93
2022-10-03T22:26:05.141Z,3.53
2022-10-03T22:29:22.811Z,3.73
2022-10-03T22:32:34.692Z,6.60
2022-10-03T22:35:51.099Z,5.50
2022-10-03T22:38:56.580Z,6.27
2022-10-03T22:42:03.669Z,4.90
2022-10-03T22:45:10.208Z,4.93
2022-10-03T22:48:18.953Z,6.63
2022-10-03T22:51:24.605Z,5.03
2022-10-03T22:54:36.938Z,4.67
2022-10-03T22:57:47.535Z,4.40
2022-10-03T23:00:56.531Z,4.23
2022-10-03T23:04:02.157Z,5.10
2022-10-03T23:07:26.981Z,5.30
2022-10-03T23:10:42.308Z,7.00
2022-10-03T23:13:48.920Z,4.67
2022-10-03T23:16:57.646Z,5.47
2022-10-03T23:20:12.910Z,6.13
2022-10-03T23:23:24.611Z,3.20
2022-10-03T23:26:46.376Z,5.27
2022-10-03T23:30:35.895Z,6.23
2022-10-03T23:33:52.766Z,6.40
2022-10-03T23:37:22.661Z,9.27
2022-10-03T23:40:39.549Z,4.90
2022-10-03T23:43:51.830Z,7.93
2022-10-03T23:46:57.692Z,5.17
2022-10-03T23:50:06.609Z,5.60
2022-10-03T23:53:21.707Z,4.00
2022-10-03T23:56:32.533Z,5.77
2022-10-03T23:59:39.835Z,4.93
